CheckWX is a tool to help pilots better visualize weather data.  It is not intended as a substitute for an official pre-flight weather briefing.

00:56:13 UTC

HEMM TAF
Mersa Matruh Airport
Mersa Matruh, Egypt
TAF HEMM 162300Z 1700/1806 02008KT 9999 FEW020

Nov-17@
00:00 UTC

Nov-17 @ 00:00 UTC

Nov-18@
06:00 UTC

Nov-18 @ 06:00 UTC

TAF HEMM 162300Z 1700/1806 02008KT 9999 FEW020
Wind
  • 020° at 8 KTS
Cloud Levels
  • Few at 2,000' AGL